createdAt,value
2023-04-02T00:01:46.075Z,100368.28
2023-04-02T00:04:22.715Z,100369.25
2023-04-02T00:06:54.548Z,100384.25
2023-04-02T00:09:26.056Z,100372.91
2023-04-02T00:11:55.962Z,100378.28
2023-04-02T00:14:27.445Z,100388.72
2023-04-02T00:16:54.638Z,100386.22
2023-04-02T00:19:30.803Z,100384.50
2023-04-02T00:21:57.833Z,100387.94
2023-04-02T00:24:24.668Z,100391.41
2023-04-02T00:26:52.126Z,100400.03
2023-04-02T00:29:19.107Z,100397.41
2023-04-02T00:31:47.182Z,100396.59
2023-04-02T00:34:21.776Z,100411.38
2023-04-02T00:36:49.397Z,100410.59
2023-04-02T00:39:19.029Z,100412.28
2023-04-02T00:41:47.115Z,100422.66
2023-04-02T00:44:15.858Z,100423.56
2023-04-02T00:46:47.509Z,100431.44
2023-04-02T00:49:21.962Z,100431.22
2023-04-02T00:51:50.563Z,100428.59
2023-04-02T00:54:18.752Z,100433.09
2023-04-02T00:56:46.137Z,100433.09
2023-04-02T00:59:17.629Z,100448.72
2023-04-02T01:01:44.429Z,100448.97
2023-04-02T01:04:32.870Z,100447.13
2023-04-02T01:07:00.041Z,100455.06
2023-04-02T01:09:36.180Z,100447.44
2023-04-02T01:12:21.315Z,100461.31
2023-04-02T01:15:01.036Z,100456.88
2023-04-02T01:17:49.327Z,100457.94
2023-04-02T01:20:31.459Z,100459.53
2023-04-02T01:23:02.777Z,100469.63
2023-04-02T01:25:32.486Z,100468.56
2023-04-02T01:28:19.910Z,100474.97
2023-04-02T01:30:53.586Z,100478.47
2023-04-02T01:33:25.775Z,100488.75
2023-04-02T01:35:55.796Z,100489.44
2023-04-02T01:38:25.962Z,100496.63
2023-04-02T01:40:55.432Z,100504.50
2023-04-02T01:43:33.972Z,100503.84
2023-04-02T01:46:05.370Z,100515.75
2023-04-02T01:52:19.944Z,100516.63
2023-04-02T01:54:47.660Z,100529.06
2023-04-02T01:57:14.413Z,100522.28
2023-04-02T01:59:41.465Z,100539.69
2023-04-02T02:02:12.658Z,100528.56
2023-04-02T02:04:40.868Z,100544.41
2023-04-02T02:07:14.616Z,100537.63
2023-04-02T02:09:43.447Z,100540.84
2023-04-02T02:12:14.146Z,100542.69
2023-04-02T02:14:45.910Z,100552.53
2023-04-02T02:17:15.832Z,100564.66
2023-04-02T02:19:43.936Z,100564.00
2023-04-02T02:22:29.658Z,100578.78
2023-04-02T02:24:56.867Z,100570.88
2023-04-02T02:27:23.574Z,100577.72
2023-04-02T02:30:07.630Z,100588.03
2023-04-02T02:32:34.794Z,100592.03
2023-04-02T02:35:01.616Z,100601.03
2023-04-02T02:37:29.916Z,100597.16
2023-04-02T02:39:58.075Z,100598.34
2023-04-02T02:42:31.333Z,100606.00
2023-04-02T02:44:58.910Z,100594.38
2023-04-02T02:47:27.059Z,100603.53
2023-04-02T02:49:55.616Z,100618.31
2023-04-02T02:52:28.131Z,100613.06
2023-04-02T02:55:07.119Z,100619.72
2023-04-02T02:57:47.516Z,100615.59
2023-04-02T03:00:16.298Z,100622.59
2023-04-02T03:02:43.702Z,100628.56
2023-04-02T03:05:20.863Z,100635.94
2023-04-02T03:07:50.085Z,100640.53
2023-04-02T03:10:19.226Z,100649.19
2023-04-02T03:12:48.089Z,100644.81
2023-04-02T03:15:36.098Z,100648.25
2023-04-02T03:18:04.070Z,100652.66
2023-04-02T03:20:40.667Z,100660.56
2023-04-02T03:23:19.189Z,100672.03
2023-04-02T03:25:49.468Z,100671.22
2023-04-02T03:28:17.899Z,100669.13
2023-04-02T03:30:46.775Z,100682.66
2023-04-02T03:33:26.787Z,100690.53
2023-04-02T03:35:54.791Z,100689.59
2023-04-02T03:38:28.835Z,100691.31
2023-04-02T03:41:04.259Z,100694.88
2023-04-02T03:43:37.579Z,100692.56
2023-04-02T03:46:24.901Z,100697.28
2023-04-02T03:48:53.668Z,100704.19
2023-04-02T03:51:21.931Z,100708.78
2023-04-02T03:53:49.959Z,100704.31
2023-04-02T03:56:26.986Z,100715.88
2023-04-02T03:58:55.907Z,100715.00
2023-04-02T04:01:30.083Z,100721.34
2023-04-02T04:03:58.238Z,100729.03
2023-04-02T04:06:27.755Z,100736.03
2023-04-02T04:08:55.373Z,100736.81
2023-04-02T04:11:24.762Z,100732.38
2023-04-02T04:14:10.521Z,100740.41
2023-04-02T04:16:41.849Z,100743.19
2023-04-02T04:19:30.074Z,100737.09
2023-04-02T04:22:15.313Z,100748.44
2023-04-02T04:24:45.853Z,100751.06
2023-04-02T04:27:36.285Z,100758.84
2023-04-02T04:30:20.451Z,100764.09
2023-04-02T04:32:51.312Z,100768.34
2023-04-02T04:35:26.952Z,100768.44
2023-04-02T04:37:59.278Z,100767.50
2023-04-02T04:40:27.624Z,100778.81
2023-04-02T04:42:59.478Z,100781.19
2023-04-02T04:45:43.779Z,100784.88
2023-04-02T04:48:20.762Z,100790.97
2023-04-02T04:50:54.042Z,100795.53
2023-04-02T04:53:22.002Z,100799.84
2023-04-02T04:56:06.019Z,100808.59
2023-04-02T04:58:46.484Z,100807.44
2023-04-02T05:01:24.955Z,100812.69
2023-04-02T05:03:58.236Z,100815.31
2023-04-02T05:06:34.535Z,100823.94
2023-04-02T05:09:06.135Z,100826.50
2023-04-02T05:11:35.204Z,100831.00
2023-04-02T05:14:06.822Z,100840.59
2023-04-02T05:16:39.750Z,100834.53
2023-04-02T05:19:09.304Z,100850.28
2023-04-02T05:21:39.189Z,100849.34
2023-04-02T05:24:30.699Z,100860.63
2023-04-02T05:26:58.652Z,100864.94
2023-04-02T05:29:27.011Z,100871.66
2023-04-02T05:31:55.807Z,100873.44
2023-04-02T05:34:24.374Z,100876.56
2023-04-02T05:36:55.801Z,100880.13
2023-04-02T05:39:26.586Z,100882.72
2023-04-02T05:42:00.146Z,100890.88
2023-04-02T05:44:45.884Z,100892.91
2023-04-02T05:47:19.463Z,100890.44
2023-04-02T05:49:48.987Z,100891.59
2023-04-02T05:52:26.803Z,100903.78
2023-04-02T05:55:14.086Z,100902.81
2023-04-02T05:58:01.116Z,100904.53
2023-04-02T06:00:39.613Z,100917.66
2023-04-02T06:03:32.680Z,100921.53
2023-04-02T06:06:01.797Z,100928.50
2023-04-02T06:08:36.204Z,100927.56
2023-04-02T06:11:08.998Z,100934.50
2023-04-02T06:13:39.488Z,100937.13
2023-04-02T06:16:08.383Z,100945.03
2023-04-02T06:18:36.149Z,100939.09
2023-04-02T06:21:08.337Z,100945.13
2023-04-02T06:23:38.838Z,100963.56
2023-04-02T06:26:24.182Z,100958.38
2023-04-02T06:28:55.152Z,100961.66
2023-04-02T06:31:25.979Z,100965.78
2023-04-02T06:34:03.329Z,100968.50
2023-04-02T06:36:34.627Z,100968.09
2023-04-02T06:39:08.877Z,100973.19
2023-04-02T06:41:38.890Z,100978.69
2023-04-02T06:44:28.403Z,100987.47
2023-04-02T06:47:21.180Z,100991.59
2023-04-02T06:49:51.657Z,100997.66
2023-04-02T06:52:21.748Z,100996.69
2023-04-02T06:54:49.280Z,101003.41
2023-04-02T06:57:17.390Z,101014.72
2023-04-02T06:59:47.172Z,101012.63
2023-04-02T07:02:26.261Z,101000.28
2023-04-02T07:05:02.195Z,101010.97
2023-04-02T07:07:30.835Z,101025.63
2023-04-02T07:09:59.304Z,101026.34
2023-04-02T07:18:33.753Z,101039.72
2023-04-02T07:21:04.802Z,101041.63
2023-04-02T07:30:05.932Z,101057.44
2023-04-02T07:32:32.984Z,101060.97
2023-04-02T07:34:59.887Z,101062.03
2023-04-02T07:37:26.834Z,101054.47
2023-04-02T07:39:53.933Z,101064.47
2023-04-02T07:42:20.787Z,101066.38
2023-04-02T07:44:47.850Z,101064.47
2023-04-02T07:47:14.953Z,101071.47
2023-04-02T07:49:42.395Z,101080.97
2023-04-02T07:52:13.023Z,101076.56
2023-04-02T07:54:40.237Z,101086.31
2023-04-02T08:03:56.376Z,101105.94
2023-04-02T08:06:46.032Z,101108.03
2023-04-02T08:09:13.366Z,101115.75
2023-04-02T08:11:42.368Z,101112.38
2023-04-02T08:14:09.822Z,101128.09
2023-04-02T08:16:50.021Z,101129.56
2023-04-02T08:19:17.065Z,101122.91
2023-04-02T08:21:44.031Z,101133.59
2023-04-02T08:24:11.145Z,101143.22
2023-04-02T08:26:38.204Z,101145.63
2023-04-02T08:29:05.098Z,101152.34
2023-04-02T08:31:32.544Z,101148.16
2023-04-02T08:33:59.768Z,101147.03
2023-04-02T08:36:30.400Z,101152.41
2023-04-02T08:38:57.376Z,101155.03
2023-04-02T08:41:32.652Z,101159.47
2023-04-02T08:44:18.597Z,101167.56
2023-04-02T08:46:49.909Z,101165.78
2023-04-02T08:49:17.663Z,101172.69
2023-04-02T08:54:56.456Z,101173.47
2023-04-02T08:57:23.390Z,101180.78
2023-04-02T08:59:51.576Z,101185.03
2023-04-02T09:02:25.087Z,101175.25
2023-04-02T09:05:22.894Z,101185.03
2023-04-02T09:07:51.386Z,101178.41
2023-04-02T09:10:18.842Z,101193.41
2023-04-02T09:12:47.346Z,101181.13
2023-04-02T09:15:21.840Z,101192.44
2023-04-02T09:17:54.446Z,101194.03
2023-04-02T09:20:26.510Z,101200.09
2023-04-02T09:22:54.093Z,101199.81
2023-04-02T09:25:22.039Z,101209.47
2023-04-02T09:27:50.213Z,101197.66
2023-04-02T09:30:30.086Z,101198.59
2023-04-02T09:32:58.309Z,101191.75
2023-04-02T09:35:26.831Z,101194.38
2023-04-02T09:38:13.175Z,101195.09
2023-04-02T09:40:43.204Z,101201.38
2023-04-02T09:43:17.328Z,101215.88
2023-04-02T09:45:45.578Z,101209.97
2023-04-02T09:48:18.196Z,101217.34
2023-04-02T09:50:45.044Z,101235.72
2023-04-02T09:53:29.471Z,101235.63
2023-04-02T09:56:08.825Z,101244.94
2023-04-02T09:58:36.127Z,101253.00
2023-04-02T10:01:02.987Z,101254.56
2023-04-02T10:03:30.520Z,101249.69
2023-04-02T10:06:14.353Z,101250.72
2023-04-02T10:08:42.675Z,101261.09
2023-04-02T10:11:11.612Z,101264.44
2023-04-02T10:14:01.747Z,101277.75
2023-04-02T10:16:42.475Z,101275.09
2023-04-02T10:19:35.911Z,101286.13
2023-04-02T10:22:07.378Z,101289.53
2023-04-02T10:24:34.146Z,101280.88
2023-04-02T10:27:03.109Z,101286.66
2023-04-02T10:29:40.165Z,101293.53
2023-04-02T10:32:27.413Z,101288.00
2023-04-02T10:35:03.836Z,101301.50
2023-04-02T10:37:39.868Z,101306.69
2023-04-02T10:40:29.573Z,101294.28
2023-04-02T10:43:10.879Z,101305.22
2023-04-02T10:45:49.796Z,101309.56
2023-04-02T10:48:29.544Z,101320.94
2023-04-02T10:51:00.913Z,101309.88
2023-04-02T10:53:49.273Z,101316.53
2023-04-02T10:56:16.256Z,101323.03
2023-04-02T10:58:47.457Z,101308.75
2023-04-02T11:01:18.208Z,101319.09
2023-04-02T11:03:47.117Z,101317.06
2023-04-02T11:06:18.092Z,101322.94
2023-04-02T11:08:48.096Z,101324.13
2023-04-02T11:11:16.063Z,101319.09
2023-04-02T11:13:46.018Z,101315.84
2023-04-02T11:16:15.905Z,101329.59
2023-04-02T11:18:43.073Z,101323.00
2023-04-02T11:21:25.148Z,101315.34
2023-04-02T11:24:15.265Z,101329.81
2023-04-02T11:26:42.484Z,101328.72
2023-04-02T11:29:14.365Z,101330.44
2023-04-02T11:31:41.959Z,101351.75
2023-04-02T11:34:17.124Z,101343.50
2023-04-02T11:36:53.213Z,101350.38
2023-04-02T11:39:38.788Z,101362.41
2023-04-02T11:42:06.692Z,101363.97
2023-04-02T11:44:33.551Z,101368.44
2023-04-02T11:47:20.007Z,101371.72
2023-04-02T11:50:00.527Z,101372.59
2023-04-02T11:52:38.327Z,101381.19
2023-04-02T11:55:15.732Z,101375.53
2023-04-02T11:57:56.545Z,101388.88
2023-04-02T12:00:29.411Z,101391.47
2023-04-02T12:03:00.195Z,101390.13
2023-04-02T12:05:37.405Z,101379.75
2023-04-02T12:08:05.646Z,101385.94
2023-04-02T12:10:33.349Z,101387.44
2023-04-02T12:13:00.255Z,101405.03
2023-04-02T12:15:32.720Z,101397.59
2023-04-02T12:18:04.607Z,101412.56
2023-04-02T12:20:31.744Z,101405.81
2023-04-02T12:22:58.619Z,101406.03
2023-04-02T12:25:29.742Z,101412.50
2023-04-02T12:28:12.042Z,101404.94
2023-04-02T12:30:39.174Z,101402.34
2023-04-02T12:33:15.324Z,101406.59
2023-04-02T12:35:42.128Z,101405.97
2023-04-02T12:38:19.007Z,101419.03
2023-04-02T12:40:56.014Z,101410.53
2023-04-02T12:43:29.965Z,101416.72
2023-04-02T12:45:58.696Z,101426.69
2023-04-02T12:48:25.627Z,101433.03
2023-04-02T12:50:52.412Z,101436.06
2023-04-02T12:53:21.727Z,101435.31
2023-04-02T12:55:49.294Z,101438.19
2023-04-02T12:58:26.855Z,101434.50
2023-04-02T13:00:54.101Z,101433.91
2023-04-02T13:03:22.471Z,101443.72
2023-04-02T13:05:53.694Z,101441.72
2023-04-02T13:08:23.324Z,101432.75
2023-04-02T13:10:54.576Z,101446.13
2023-04-02T13:13:23.144Z,101440.34
2023-04-02T13:16:00.380Z,101450.47
2023-04-02T13:18:28.021Z,101435.69
2023-04-02T13:21:29.014Z,101457.66
2023-04-02T13:23:53.040Z,101452.50
2023-04-02T13:26:23.131Z,101456.75
2023-04-02T13:29:17.363Z,101451.28
2023-04-02T13:31:44.777Z,101450.03
2023-04-02T13:34:12.150Z,101456.72
2023-04-02T13:36:39.319Z,101459.22
2023-04-02T13:39:06.738Z,101466.72
2023-04-02T13:41:39.886Z,101474.34
2023-04-02T13:44:07.340Z,101477.22
2023-04-02T13:46:34.820Z,101479.03
2023-04-02T13:49:04.295Z,101474.28
2023-04-02T13:51:34.199Z,101474.06
2023-04-02T13:54:01.249Z,101480.00
2023-04-02T13:56:28.450Z,101468.00
2023-04-02T13:58:55.454Z,101488.59
2023-04-02T14:01:22.413Z,101489.34
2023-04-02T14:03:49.415Z,101488.31
2023-04-02T14:06:26.642Z,101478.97
2023-04-02T14:09:04.979Z,101479.66
2023-04-02T14:11:39.117Z,101484.81
2023-04-02T14:14:24.707Z,101487.44
2023-04-02T14:17:00.016Z,101496.59
2023-04-02T14:19:39.461Z,101503.09
2023-04-02T14:22:10.591Z,101490.56
2023-04-02T14:24:40.580Z,101491.88
2023-04-02T14:27:13.736Z,101498.84
2023-04-02T14:29:59.926Z,101500.59
2023-04-02T14:32:32.489Z,101501.94
2023-04-02T14:35:24.691Z,101501.31
2023-04-02T14:38:04.400Z,101501.28
2023-04-02T14:40:40.441Z,101513.84
2023-04-02T14:43:17.660Z,101518.22
2023-04-02T14:45:50.623Z,101524.31
2023-04-02T14:48:21.777Z,101518.97
2023-04-02T14:50:48.778Z,101522.81
2023-04-02T14:53:20.840Z,101531.03
2023-04-02T14:55:48.642Z,101529.22
2023-04-02T14:58:17.173Z,101542.06
2023-04-02T15:00:46.079Z,101543.19
2023-04-02T15:03:17.325Z,101544.66
2023-04-02T15:05:44.407Z,101534.25
2023-04-02T15:08:21.246Z,101525.19
2023-04-02T15:11:04.927Z,101552.63
2023-04-02T15:13:36.192Z,101542.03
2023-04-02T15:16:11.623Z,101552.34
2023-04-02T15:18:38.872Z,101543.63
2023-04-02T15:21:28.785Z,101546.69
2023-04-02T15:24:01.934Z,101554.88
2023-04-02T15:26:35.126Z,101550.88
2023-04-02T15:29:25.959Z,101557.56
2023-04-02T15:31:57.963Z,101542.59
2023-04-02T15:34:32.629Z,101568.78
2023-04-02T15:37:01.795Z,101573.88
2023-04-02T15:39:30.122Z,101580.28
2023-04-02T15:42:00.143Z,101591.09
2023-04-02T15:44:28.264Z,101584.50
2023-04-02T15:47:15.648Z,101577.28
2023-04-02T15:49:44.414Z,101568.75
2023-04-02T15:52:13.548Z,101575.41
2023-04-02T15:54:52.188Z,101598.38
2023-04-02T15:57:39.569Z,101600.56
2023-04-02T16:00:30.811Z,101596.78
2023-04-02T16:03:10.180Z,101606.81
2023-04-02T16:05:40.442Z,101609.84
2023-04-02T16:08:18.075Z,101609.88
2023-04-02T16:10:47.206Z,101615.72
2023-04-02T16:13:16.438Z,101619.09
2023-04-02T16:15:48.302Z,101620.78
2023-04-02T16:18:17.416Z,101626.94
2023-04-02T16:20:44.898Z,101612.00
2023-04-02T16:23:16.721Z,101629.09
2023-04-02T16:25:57.676Z,101626.03
2023-04-02T16:28:25.560Z,101638.91
2023-04-02T16:30:55.195Z,101637.91
2023-04-02T16:33:48.468Z,101639.31
2023-04-02T16:36:21.761Z,101647.09
2023-04-02T16:39:10.381Z,101649.09
2023-04-02T16:41:41.528Z,101649.59
2023-04-02T16:44:27.452Z,101656.41
2023-04-02T16:47:03.212Z,101670.75
2023-04-02T16:49:33.574Z,101660.28
2023-04-02T16:52:19.197Z,101675.72
2023-04-02T16:55:02.278Z,101684.97
2023-04-02T16:57:29.185Z,101691.06
2023-04-02T17:00:16.318Z,101691.47
2023-04-02T17:03:02.200Z,101697.69
2023-04-02T17:05:29.322Z,101694.16
2023-04-02T17:08:03.475Z,101705.78
2023-04-02T17:10:31.440Z,101714.03
2023-04-02T17:13:02.406Z,101707.94
2023-04-02T17:15:39.582Z,101720.66
2023-04-02T17:18:11.212Z,101717.75
2023-04-02T17:20:38.239Z,101733.16
2023-04-02T17:23:05.875Z,101733.38
2023-04-02T17:41:11.439Z,101761.91
2023-04-02T17:43:54.338Z,101768.03
2023-04-02T17:46:32.644Z,101765.47
2023-04-02T17:49:01.358Z,101770.69
2023-04-02T17:51:42.632Z,101780.63
2023-04-02T17:54:16.528Z,101777.69
2023-04-02T17:57:00.350Z,101782.38
2023-04-02T17:59:33.328Z,101788.13
2023-04-02T18:02:03.423Z,101794.34
2023-04-02T18:04:33.470Z,101792.03
2023-04-02T18:07:00.244Z,101798.22
2023-04-02T18:09:30.274Z,101805.31
2023-04-02T18:12:16.828Z,101813.28
2023-04-02T18:15:02.246Z,101809.03
2023-04-02T18:17:48.109Z,101814.31
2023-04-02T18:20:34.123Z,101824.16
2023-04-02T18:23:03.447Z,101810.31
2023-04-02T18:25:47.881Z,101833.09
2023-04-02T18:28:36.039Z,101837.41
2023-04-02T18:31:21.866Z,101837.50
2023-04-02T18:33:55.043Z,101835.09
2023-04-02T18:36:34.164Z,101829.03
2023-04-02T18:39:03.168Z,101850.16
2023-04-02T18:42:02.768Z,101850.22
2023-04-02T18:44:49.489Z,101852.88
2023-04-02T18:47:21.350Z,101864.28
2023-04-02T18:49:54.451Z,101861.72
2023-04-02T18:52:21.844Z,101868.75
2023-04-02T18:54:53.101Z,101867.03
2023-04-02T18:57:22.482Z,101864.41
2023-04-02T19:00:00.705Z,101871.50
2023-04-02T19:02:43.397Z,101879.53
2023-04-02T19:05:22.469Z,101886.53
2023-04-02T19:07:51.019Z,101889.22
2023-04-02T19:10:50.643Z,101897.94
2023-04-02T19:13:18.429Z,101897.22
2023-04-02T19:15:46.413Z,101907.72
2023-04-02T19:18:33.107Z,101909.47
2023-04-02T19:21:06.025Z,101913.94
2023-04-02T19:24:07.376Z,101918.25
2023-04-02T19:26:44.470Z,101926.25
2023-04-02T19:29:37.742Z,101925.44
2023-04-02T19:32:04.700Z,101923.78
2023-04-02T19:34:35.035Z,101929.13
2023-04-02T19:37:06.670Z,101942.19
2023-04-02T19:39:33.454Z,101938.75
2023-04-02T19:42:02.623Z,101942.25
2023-04-02T19:44:29.401Z,101954.47
2023-04-02T19:46:56.322Z,101948.41
2023-04-02T19:49:26.215Z,101958.91
2023-04-02T19:51:53.834Z,101953.75
2023-04-02T19:54:20.731Z,101959.91
2023-04-02T19:56:47.680Z,101959.03
2023-04-02T19:59:18.101Z,101964.34
2023-04-02T20:01:45.768Z,101967.03
2023-04-02T20:04:12.753Z,101972.25
2023-04-02T20:06:39.594Z,101970.53
2023-04-02T20:09:07.791Z,101973.16
2023-04-02T20:11:35.356Z,101972.34
2023-04-02T20:14:02.186Z,101983.69
2023-04-02T20:16:29.105Z,101974.09
2023-04-02T20:22:14.995Z,101982.94
2023-04-02T20:24:42.906Z,101989.97
2023-04-02T20:27:09.689Z,101989.97
2023-04-02T20:29:36.908Z,101993.44
2023-04-02T20:32:03.720Z,101996.94
2023-04-02T20:34:30.826Z,102004.88
2023-04-02T20:36:58.181Z,102007.50
2023-04-02T20:39:25.097Z,102003.16
2023-04-02T20:41:52.070Z,102016.25
2023-04-02T20:44:18.935Z,102012.78
2023-04-02T20:46:45.756Z,102019.78
2023-04-02T20:49:12.549Z,102028.50
2023-04-02T20:51:39.339Z,102021.56
2023-04-02T20:54:06.166Z,102026.78
2023-04-02T20:56:33.200Z,102031.19
2023-04-02T20:59:00.104Z,102032.09
2023-04-02T21:01:28.058Z,102030.38
2023-04-02T21:03:55.930Z,102042.59
2023-04-02T21:06:23.472Z,102034.78
2023-04-02T21:08:50.334Z,102033.91
2023-04-02T21:11:17.431Z,102051.34
2023-04-02T21:13:44.482Z,102050.50
2023-04-02T21:16:22.033Z,102055.75
2023-04-02T21:18:49.720Z,102060.13
2023-04-02T21:21:16.729Z,102058.38
2023-04-02T21:23:43.985Z,102053.16
2023-04-02T21:26:16.050Z,102068.03
2023-04-02T21:28:43.126Z,102062.78
2023-04-02T21:31:11.361Z,102063.66
2023-04-02T21:33:39.318Z,102068.91
2023-04-02T21:36:09.791Z,102069.81
2023-04-02T21:38:38.442Z,102064.56
2023-04-02T21:41:16.107Z,102063.69
2023-04-02T21:43:43.544Z,102052.34
2023-04-02T21:46:10.573Z,102067.22
2023-04-02T21:48:37.523Z,102066.31
2023-04-02T21:51:23.743Z,102076.81
2023-04-02T21:53:50.844Z,102084.69
2023-04-02T21:56:19.114Z,102085.56
2023-04-02T21:58:47.445Z,102088.16
2023-04-02T22:01:26.078Z,102091.69
2023-04-02T22:03:54.286Z,102091.69
2023-04-02T22:06:21.950Z,102094.28
2023-04-02T22:08:52.626Z,102094.31
2023-04-02T22:11:21.146Z,102095.16
2023-04-02T22:13:48.386Z,102092.56
2023-04-02T22:16:16.302Z,102103.88
2023-04-02T22:18:43.446Z,102105.66
2023-04-02T22:21:10.441Z,102105.66
2023-04-02T22:23:37.576Z,102106.53
2023-04-02T22:26:04.608Z,102107.38
2023-04-02T22:28:32.013Z,102110.03
2023-04-02T22:31:03.943Z,102115.25
2023-04-02T22:33:32.601Z,102115.25
2023-04-02T22:35:59.474Z,102115.28
2023-04-02T22:38:26.446Z,102116.13
2023-04-02T22:40:53.177Z,102117.91
2023-04-02T22:43:20.172Z,102127.47
2023-04-02T22:45:47.484Z,102127.47
2023-04-02T22:48:14.327Z,102127.47
2023-04-02T22:50:41.337Z,102136.19
2023-04-02T22:53:08.189Z,102133.59
2023-04-02T22:55:35.008Z,102139.69
2023-04-02T22:58:01.888Z,102145.81
2023-04-02T23:00:29.096Z,102137.94
2023-04-02T23:02:56.392Z,102149.28
2023-04-02T23:05:23.208Z,102142.28
2023-04-02T23:07:50.223Z,102147.53
2023-04-02T23:10:17.184Z,102153.66
2023-04-02T23:12:43.960Z,102155.38
2023-04-02T23:15:11.022Z,102159.75
2023-04-02T23:17:38.549Z,102161.50
2023-04-02T23:20:05.935Z,102151.88
2023-04-02T23:22:32.733Z,102155.38
2023-04-02T23:24:59.944Z,102151.88
2023-04-02T23:27:26.914Z,102164.09
2023-04-02T23:29:53.754Z,102160.59
2023-04-02T23:32:21.201Z,102157.97
2023-04-02T23:34:48.084Z,102166.72
2023-04-02T23:37:15.283Z,102161.50
2023-04-02T23:39:42.166Z,102166.72
2023-04-02T23:42:09.763Z,102166.72
2023-04-02T23:44:36.645Z,102171.06
2023-04-02T23:47:03.498Z,102170.19
2023-04-02T23:49:30.556Z,102176.31
2023-04-02T23:51:58.090Z,102176.31
2023-04-02T23:54:24.981Z,102168.47
2023-04-02T23:56:51.814Z,102172.81
2023-04-02T23:59:18.633Z,102171.03
